createdAt,value
2017-06-19T00:00:22.810Z,55.23
2017-06-19T00:01:32.880Z,55.13
2017-06-19T00:02:42.817Z,55.23
2017-06-19T00:03:53.186Z,55.04
2017-06-19T00:05:02.957Z,55.04
2017-06-19T00:06:13.477Z,55.13
2017-06-19T00:07:23.516Z,55.23
2017-06-19T00:08:33.556Z,55.13
2017-06-19T00:09:43.276Z,55.13
2017-06-19T00:10:53.059Z,55.11
2017-06-19T00:12:24.162Z,55.04
2017-06-19T00:13:34.241Z,55.04
2017-06-19T00:14:44.291Z,55.04
2017-06-19T00:15:54.651Z,55.13
2017-06-19T00:17:04.694Z,55.04
2017-06-19T00:18:15.241Z,55.04
2017-06-19T00:19:24.977Z,55.13
2017-06-19T00:20:35.314Z,55.04
2017-06-19T00:21:45.701Z,55.33
2017-06-19T00:22:56.045Z,55.33
2017-06-19T00:24:06.404Z,55.33
2017-06-19T00:25:16.149Z,55.04
2017-06-19T00:26:26.498Z,54.91
2017-06-19T00:27:36.836Z,54.91
2017-06-19T00:28:47.642Z,55.2
2017-06-19T00:29:57.978Z,55.2
2017-06-19T00:31:08.341Z,55.01
2017-06-19T00:32:18.367Z,55.11
2017-06-19T00:33:28.466Z,55.2
2017-06-19T00:34:38.499Z,55.2
2017-06-19T00:36:15.263Z,55.11
2017-06-19T00:37:25.495Z,55.2
2017-06-19T00:38:35.932Z,55.01
2017-06-19T00:39:46.494Z,55.11
2017-06-19T00:40:56.527Z,55.11
2017-06-19T00:42:06.571Z,55.2
2017-06-19T00:43:16.934Z,55.11
2017-06-19T00:44:27.352Z,55.11
2017-06-19T00:45:37.693Z,55.2
2017-06-19T00:46:47.435Z,55.4
2017-06-19T00:47:57.792Z,55.01
2017-06-19T00:49:07.838Z,55.2
2017-06-19T00:50:17.920Z,55.2
2017-06-19T00:51:27.971Z,55.11
2017-06-19T00:52:38.357Z,55.01
2017-06-19T00:53:49.153Z,55.49
2017-06-19T00:54:59.493Z,55.08
2017-06-19T00:56:09.903Z,55.11
2017-06-19T00:57:20.286Z,55.11
2017-06-19T00:58:30.661Z,55.11
2017-06-19T00:59:41.093Z,55.01
2017-06-19T01:00:51.120Z,55.08
2017-06-19T01:02:01.729Z,55.18
2017-06-19T01:03:12.079Z,55.08
2017-06-19T01:04:22.429Z,55.18
2017-06-19T01:05:32.838Z,55.08
2017-06-19T01:06:42.870Z,55.37
2017-06-19T01:07:53.213Z,55.08
2017-06-19T01:09:02.953Z,55.08
2017-06-19T01:10:13.298Z,55.18
2017-06-19T01:11:23.032Z,54.99
2017-06-19T01:13:04.876Z,54.99
2017-06-19T01:14:14.941Z,55.08
2017-06-19T01:15:25.313Z,55.08
2017-06-19T01:16:35.657Z,55.08
2017-06-19T01:17:46.028Z,55.18
2017-06-19T01:18:56.413Z,54.99
2017-06-19T01:20:07.210Z,55.08
2017-06-19T01:21:17.233Z,55.08
2017-06-19T01:22:27.579Z,55.18
2017-06-19T01:23:37.917Z,55.18
2017-06-19T01:24:48.283Z,55.37
2017-06-19T01:25:58.705Z,55.18
2017-06-19T01:27:08.721Z,55.08
2017-06-19T01:28:18.828Z,55.08
2017-06-19T01:29:28.871Z,54.99
2017-06-19T01:30:38.950Z,54.99
2017-06-19T01:31:48.665Z,54.99
2017-06-19T01:32:59.034Z,55.08
2017-06-19T01:34:09.410Z,55.18
2017-06-19T01:35:19.772Z,55.08
2017-06-19T01:36:29.820Z,55.18
2017-06-19T01:37:40.161Z,55.08
2017-06-19T01:38:50.497Z,54.99
2017-06-19T01:40:00.842Z,55.08
2017-06-19T01:41:10.904Z,55.08
2017-06-19T01:42:21.294Z,54.96
2017-06-19T01:43:31.669Z,55.08
2017-06-19T01:44:42.007Z,55.08
2017-06-19T01:45:52.309Z,55.08
2017-06-19T01:47:02.672Z,55.18
2017-06-19T01:48:13.081Z,55.08
2017-06-19T01:49:23.449Z,55.18
2017-06-19T01:50:33.505Z,55.08
2017-06-19T01:51:43.534Z,55.27
2017-06-19T01:52:53.958Z,55.18
2017-06-19T01:54:04.037Z,55.37
2017-06-19T01:55:14.061Z,55.18
2017-06-19T01:56:24.420Z,55.44
2017-06-19T01:57:34.491Z,55.53
2017-06-19T01:58:44.854Z,55.27
2017-06-19T01:59:55.231Z,55.46
2017-06-19T02:01:05.284Z,55.24
2017-06-19T02:02:15.709Z,55.44
2017-06-19T02:03:26.071Z,55.34
2017-06-19T02:04:36.614Z,55.53
2017-06-19T02:05:46.969Z,55.44
2017-06-19T02:06:57.013Z,55.44
2017-06-19T02:08:07.405Z,55.44
2017-06-19T02:09:17.440Z,55.44
2017-06-19T02:10:27.808Z,55.44
2017-06-19T02:11:38.197Z,55.44
2017-06-19T02:12:48.550Z,55.44
2017-06-19T02:13:58.912Z,55.34
2017-06-19T02:15:09.310Z,55.24
2017-06-19T02:16:19.539Z,55.44
2017-06-19T02:17:30.096Z,55.44
2017-06-19T02:18:40.223Z,55.44
2017-06-19T02:19:50.255Z,55.24
2017-06-19T02:21:00.334Z,55.05
2017-06-19T02:22:10.710Z,55.44
2017-06-19T02:23:21.222Z,55.05
2017-06-19T02:24:31.573Z,55.15
2017-06-19T02:25:42.137Z,55.15
2017-06-19T02:26:52.562Z,55.05
2017-06-19T02:28:02.907Z,55.24
2017-06-19T02:29:12.628Z,55.15
2017-06-19T02:30:22.998Z,55.44
2017-06-19T02:31:33.349Z,55.22
2017-06-19T02:32:43.781Z,55.12
2017-06-19T02:33:54.395Z,55.15
2017-06-19T02:35:04.786Z,54.96
2017-06-19T02:36:15.363Z,54.96
2017-06-19T02:37:25.468Z,55.05
2017-06-19T02:38:35.543Z,55.15
2017-06-19T02:39:45.876Z,55.05
2017-06-19T02:40:56.307Z,55.32
2017-06-19T02:42:06.373Z,55.15
2017-06-19T02:43:16.722Z,54.96
2017-06-19T02:44:26.779Z,55.05
2017-06-19T02:45:36.846Z,54.96
2017-06-19T02:46:47.241Z,55.12
2017-06-19T02:47:57.588Z,55.05
2017-06-19T02:49:07.939Z,55.15
2017-06-19T02:50:17.962Z,55.05
2017-06-19T02:51:28.211Z,55.15
2017-06-19T02:52:38.620Z,55.15
2017-06-19T02:53:49.020Z,55.12
2017-06-19T02:54:59.348Z,55.12
2017-06-19T02:56:09.416Z,55.12
2017-06-19T02:57:19.961Z,54.93
2017-06-19T02:58:30.323Z,54.93
2017-06-19T02:59:40.355Z,54.93
2017-06-19T03:00:50.526Z,55.02
2017-06-19T03:33:11.327Z,52.11
2017-06-19T03:34:21.677Z,52.97
2017-06-19T03:35:32.032Z,53.45
2017-06-19T03:36:42.391Z,54.32
2017-06-19T03:37:52.823Z,54.89
2017-06-19T03:39:03.212Z,54.89
2017-06-19T03:40:13.567Z,55.01
2017-06-19T03:41:23.282Z,55.3
2017-06-19T03:42:33.619Z,55.3
2017-06-19T03:43:43.986Z,55.23
2017-06-19T03:44:54.810Z,55.8
2017-06-19T03:46:05.217Z,55.52
2017-06-19T03:47:15.613Z,55.07
2017-06-19T03:48:25.862Z,55.55
2017-06-19T03:49:36.437Z,55.64
2017-06-19T03:50:46.812Z,55.38
2017-06-19T03:51:57.320Z,55
2017-06-19T03:53:07.671Z,55.02
2017-06-19T03:54:17.748Z,54.93
2017-06-19T03:55:28.114Z,55.15
2017-06-19T03:56:38.772Z,54.67
2017-06-19T03:57:49.207Z,54.86
2017-06-19T03:58:59.621Z,55.05
2017-06-19T04:00:09.962Z,55.18
2017-06-19T04:01:19.698Z,55.08
2017-06-19T04:02:30.347Z,55.08
2017-06-19T04:03:40.757Z,54.99
2017-06-19T04:04:50.781Z,54.69
2017-06-19T04:06:00.814Z,54.6
2017-06-19T04:07:11.162Z,54.72
2017-06-19T04:08:21.575Z,55.01
2017-06-19T04:09:31.487Z,55.2
2017-06-19T04:10:41.996Z,55.01
2017-06-19T04:11:52.580Z,54.91
2017-06-19T04:13:02.311Z,54.82
2017-06-19T04:14:12.395Z,55.01
2017-06-19T04:15:22.940Z,54.85
2017-06-19T04:16:33.279Z,54.85
2017-06-19T04:17:43.648Z,55.04
2017-06-19T04:18:53.684Z,53.31
2017-06-19T04:20:04.097Z,50.88
2017-06-19T04:21:14.423Z,48.81
2017-06-19T04:22:24.808Z,47.77
2017-06-19T04:23:35.170Z,47.18
2017-06-19T04:25:17.578Z,46.57
2017-06-19T04:26:27.970Z,46.54
2017-06-19T04:28:04.970Z,46.8
2017-06-19T04:29:15.357Z,47.05
2017-06-19T04:30:25.988Z,47.28
2017-06-19T04:31:36.329Z,47.6
2017-06-19T04:32:46.357Z,47.53
2017-06-19T04:33:56.408Z,47.55
2017-06-19T04:35:06.965Z,47.5
2017-06-19T04:36:17.552Z,47.69
2017-06-19T04:37:27.914Z,47.81
2017-06-19T04:38:38.459Z,47.74
2017-06-19T04:39:48.237Z,47.67
2017-06-19T04:40:58.319Z,47.79
2017-06-19T04:42:08.409Z,47.91
2017-06-19T04:43:18.465Z,48.11
2017-06-19T04:44:28.524Z,48.03
2017-06-19T04:45:38.877Z,48.72
2017-06-19T04:46:48.601Z,48.65
2017-06-19T04:47:59.005Z,48.45
2017-06-19T04:49:09.356Z,48.47
2017-06-19T04:50:19.713Z,48.08
2017-06-19T04:51:30.060Z,47.88
2017-06-19T04:52:40.416Z,48
2017-06-19T04:53:51.034Z,47.73
2017-06-19T04:55:01.411Z,47.92
2017-06-19T04:56:11.525Z,47.73
2017-06-19T04:57:21.264Z,47.92
2017-06-19T04:58:31.598Z,48.03
2017-06-19T04:59:41.977Z,48.13
2017-06-19T05:00:52.077Z,48.03
2017-06-19T05:02:02.431Z,48.13
2017-06-19T05:03:12.842Z,48.14
2017-06-19T05:04:40.582Z,48.13
2017-06-19T05:06:10.396Z,48.82
2017-06-19T05:07:20.799Z,48.82
2017-06-19T05:08:31.154Z,48.91
2017-06-19T05:09:41.548Z,48.83
2017-06-19T05:10:51.907Z,48.44
2017-06-19T05:12:02.264Z,48.35
2017-06-19T05:13:12.639Z,48.14
2017-06-19T05:14:23.047Z,48.17
2017-06-19T05:15:33.515Z,48.17
2017-06-19T05:16:43.904Z,48.07
2017-06-19T05:17:54.503Z,48.17
2017-06-19T05:19:04.919Z,48.86
2017-06-19T05:20:14.995Z,48.66
2017-06-19T05:21:25.605Z,48.59
2017-06-19T05:22:35.787Z,48.37
2017-06-19T05:23:45.904Z,48.47
2017-06-19T05:24:56.304Z,48.76
2017-06-19T05:26:06.692Z,49.06
2017-06-19T05:27:16.515Z,49.13
2017-06-19T05:28:54.580Z,49.13
2017-06-19T05:30:04.976Z,48.74
2017-06-19T05:31:15.348Z,49.04
2017-06-19T05:32:40.342Z,49.13
2017-06-19T05:33:50.523Z,48.94
2017-06-19T05:35:00.599Z,49.04
2017-06-19T05:36:11.656Z,49.01
2017-06-19T05:37:22.319Z,49.01
2017-06-19T05:38:32.950Z,48.99
2017-06-19T05:40:16.529Z,49.08
2017-06-19T05:41:26.956Z,48.82
2017-06-19T05:42:37.533Z,48.89
2017-06-19T05:43:48.224Z,48.71
2017-06-19T05:44:58.606Z,48.71
2017-06-19T05:46:08.356Z,48.71
2017-06-19T05:47:18.808Z,48.69
2017-06-19T05:48:28.620Z,48.69
2017-06-19T05:49:38.707Z,48.89
2017-06-19T05:50:49.283Z,48.89
2017-06-19T05:51:59.880Z,48.77
2017-06-19T05:53:10.438Z,49.06
2017-06-19T05:54:20.505Z,48.45
2017-06-19T05:55:30.910Z,49.04
2017-06-19T05:56:41.260Z,48.91
2017-06-19T05:57:51.548Z,48.91
2017-06-19T05:59:01.971Z,48.91
2017-06-19T06:00:12.044Z,49.31
2017-06-19T06:01:22.223Z,49.31
2017-06-19T06:02:32.805Z,49.21
2017-06-19T06:03:43.139Z,49.77
2017-06-19T06:04:53.499Z,49.68
2017-06-19T06:06:03.552Z,49.97
2017-06-19T06:07:13.743Z,49.95
2017-06-19T06:08:24.425Z,50.22
2017-06-19T06:09:34.859Z,50.71
2017-06-19T06:10:45.213Z,50.49
2017-06-19T06:11:55.577Z,50.88
2017-06-19T06:13:05.967Z,51.05
2017-06-19T06:14:16.589Z,51.25
2017-06-19T06:15:26.626Z,51.51
2017-06-19T06:16:37.039Z,51.12
2017-06-19T06:17:47.614Z,51.12
2017-06-19T06:18:57.900Z,51
2017-06-19T06:20:08.518Z,51.59
2017-06-19T06:21:18.879Z,51
2017-06-19T06:22:29.488Z,51
2017-06-19T06:23:40.108Z,51
2017-06-19T06:24:50.632Z,51.29
2017-06-19T06:26:00.674Z,51.56
2017-06-19T06:27:11.267Z,51.46
2017-06-19T06:28:21.101Z,51.46
2017-06-19T06:29:47.808Z,51.76
2017-06-19T06:30:58.196Z,51.64
2017-06-19T06:32:08.636Z,52.32
2017-06-19T06:33:19.018Z,52.2
2017-06-19T06:34:29.412Z,52.29
2017-06-19T06:35:39.136Z,51.9
2017-06-19T06:36:50.427Z,52
2017-06-19T06:38:00.790Z,52.27
2017-06-19T06:39:23.904Z,52.66
2017-06-19T06:40:34.771Z,52.05
2017-06-19T06:41:45.395Z,52.05
2017-06-19T06:42:55.482Z,52.56
2017-06-19T06:44:05.824Z,52.15
2017-06-19T06:46:06.758Z,52.25
2017-06-19T06:47:17.168Z,52.64
2017-06-19T06:48:27.549Z,52.31
2017-06-19T06:49:38.158Z,52.39
2017-06-19T06:51:15.400Z,53.27
2017-06-19T06:52:25.794Z,52.97
2017-06-19T06:53:36.244Z,53.17
2017-06-19T06:54:46.504Z,53.24
2017-06-19T06:56:12.619Z,52.95
2017-06-19T06:57:23.769Z,52.92
2017-06-19T06:58:52.363Z,53.11
2017-06-19T07:00:11.923Z,53.02
2017-06-19T07:01:22.568Z,52.92
2017-06-19T07:02:42.900Z,53.02
2017-06-19T07:03:53.588Z,53.09
2017-06-19T07:05:04.003Z,53.28
2017-06-19T07:06:14.449Z,53.48
2017-06-19T07:07:24.997Z,54.06
2017-06-19T07:08:35.383Z,54.06
2017-06-19T07:09:45.837Z,53.94
2017-06-19T07:10:56.236Z,53.94
2017-06-19T07:12:13.217Z,53.94
2017-06-19T07:13:23.643Z,53.85
2017-06-19T07:14:34.250Z,53.65
2017-06-19T07:15:44.707Z,53.65
2017-06-19T07:16:55.564Z,53.91
2017-06-19T07:18:05.974Z,54.01
2017-06-19T07:19:16.017Z,54.21
2017-06-19T07:20:26.519Z,54.38
2017-06-19T07:21:42.988Z,54.18
2017-06-19T07:22:53.360Z,54.18
2017-06-19T07:25:58.070Z,53.89
2017-06-19T07:27:08.178Z,53.62
2017-06-19T07:28:18.626Z,53.59
2017-06-19T07:29:29.249Z,53.62
2017-06-19T07:30:39.904Z,53.72
2017-06-19T07:32:22.084Z,53.79
2017-06-19T07:33:32.480Z,54.08
2017-06-19T07:34:42.734Z,53.79
2017-06-19T07:35:53.116Z,53.79
2017-06-19T07:37:03.505Z,53.69
2017-06-19T07:38:13.555Z,53.59
2017-06-19T07:39:23.935Z,53.79
2017-06-19T07:40:34.354Z,53.79
2017-06-19T07:41:44.847Z,53.79
2017-06-19T07:42:55.549Z,53.81
2017-06-19T07:44:05.634Z,53.79
2017-06-19T07:45:42.697Z,53.79
2017-06-19T07:46:53.333Z,53.89
2017-06-19T07:48:03.689Z,53.69
2017-06-19T07:49:14.063Z,53.79
2017-06-19T07:50:24.171Z,53.91
2017-06-19T07:51:34.614Z,53.72
2017-06-19T07:52:44.988Z,53.62
2017-06-19T07:53:55.557Z,53.52
2017-06-19T07:55:06.118Z,53.91
2017-06-19T07:56:16.458Z,54.11
2017-06-19T07:57:27.097Z,54.13
2017-06-19T07:58:37.461Z,53.91
2017-06-19T07:59:47.889Z,53.94
2017-06-19T08:00:58.271Z,53.45
2017-06-19T08:02:08.390Z,53.42
2017-06-19T08:03:18.495Z,53.75
2017-06-19T08:04:28.798Z,53.55
2017-06-19T08:05:45.482Z,53.85
2017-06-19T08:06:55.842Z,53.94
2017-06-19T08:08:06.285Z,54.03
2017-06-19T08:09:16.754Z,54.16
2017-06-19T08:10:27.156Z,53.85
2017-06-19T08:12:08.979Z,53.55
2017-06-19T08:13:19.347Z,53.94
2017-06-19T08:14:29.824Z,53.75
2017-06-19T08:15:40.575Z,53.67
2017-06-19T08:16:51.156Z,53.55
2017-06-19T08:18:01.591Z,53.94
2017-06-19T08:19:11.970Z,54.06
2017-06-19T08:20:22.332Z,53.87
2017-06-19T08:21:46.464Z,53.97
2017-06-19T08:22:56.905Z,53.97
2017-06-19T08:24:07.508Z,54.06
2017-06-19T08:25:34.405Z,53.97
2017-06-19T08:26:44.989Z,53.97
2017-06-19T08:27:55.587Z,53.11
2017-06-19T08:29:05.646Z,53.21
2017-06-19T08:30:16.007Z,53.21
2017-06-19T08:31:26.454Z,52.92
2017-06-19T08:32:36.525Z,53.44
2017-06-19T08:33:46.934Z,53.14
2017-06-19T08:34:57.277Z,53.14
2017-06-19T08:36:07.675Z,53.44
2017-06-19T08:37:17.840Z,53.24
2017-06-19T08:38:27.974Z,53.24
2017-06-19T08:39:37.708Z,54.11
2017-06-19T08:40:48.054Z,54.02
2017-06-19T08:41:58.290Z,54.21
2017-06-19T08:43:08.796Z,53.92
2017-06-19T08:44:19.399Z,54.11
2017-06-19T08:45:30.433Z,54.02
2017-06-19T08:46:40.995Z,53.53
2017-06-19T08:49:48.256Z,53.73
2017-06-19T08:50:58.701Z,53.73
2017-06-19T08:52:09.118Z,53.83
2017-06-19T08:53:19.020Z,54.11
2017-06-19T08:54:29.564Z,54.11
2017-06-19T08:56:03.793Z,53.34
2017-06-19T08:57:14.213Z,53.27
2017-06-19T08:58:47.386Z,53.27
2017-06-19T08:59:57.879Z,53.17
2017-06-19T09:01:40.945Z,53.27
2017-06-19T09:02:50.976Z,53.36
2017-06-19T09:04:01.021Z,53.56
2017-06-19T09:05:11.461Z,53.56
2017-06-19T09:06:21.845Z,54.24
2017-06-19T09:07:32.229Z,53.95
2017-06-19T09:08:42.272Z,53.95
2017-06-19T09:09:52.935Z,54.14
2017-06-19T09:11:02.722Z,54.24
2017-06-19T09:12:15.688Z,53.95
2017-06-19T09:13:26.268Z,54.14
2017-06-19T09:14:36.611Z,54.14
2017-06-19T09:15:46.660Z,53.95
2017-06-19T09:16:56.693Z,53.29
2017-06-19T09:19:04.870Z,53.58
2017-06-19T09:20:15.286Z,53
2017-06-19T09:21:25.641Z,53.49
2017-06-19T09:22:50.647Z,53.52
2017-06-19T09:24:01.089Z,53.32
2017-06-19T09:25:11.653Z,53.32
2017-06-19T09:26:21.693Z,53.52
2017-06-19T09:29:07.365Z,53.42
2017-06-19T09:30:17.706Z,53.32
2017-06-19T09:31:27.742Z,53.32
2017-06-19T09:32:38.102Z,53.25
2017-06-19T09:33:48.445Z,53.64
2017-06-19T09:34:58.827Z,53.34
2017-06-19T09:36:08.851Z,53.44
2017-06-19T09:37:19.192Z,52.98
2017-06-19T09:38:29.565Z,53.27
2017-06-19T09:39:39.605Z,53.08
2017-06-19T09:40:49.707Z,53.27
2017-06-19T09:41:59.770Z,53.37
2017-06-19T09:43:10.166Z,53.37
2017-06-19T09:44:20.511Z,53.27
2017-06-19T09:45:30.876Z,53.56
2017-06-19T09:46:41.288Z,53.47
2017-06-19T09:47:51.658Z,53.27
2017-06-19T09:49:02.026Z,53.86
2017-06-19T09:50:12.380Z,53.86
2017-06-19T09:51:22.745Z,53.66
2017-06-19T09:52:33.184Z,53.37
2017-06-19T09:53:43.231Z,53.3
2017-06-19T09:54:53.644Z,53.2
2017-06-19T09:56:03.681Z,53.39
2017-06-19T09:57:13.734Z,53.49
2017-06-19T09:58:24.205Z,53.59
2017-06-19T09:59:33.954Z,53.39
2017-06-19T10:00:44.803Z,53.1
2017-06-19T10:01:57.468Z,53.39
2017-06-19T10:03:07.831Z,53.49
2017-06-19T10:04:18.221Z,53.3
2017-06-19T10:05:28.257Z,53.39
2017-06-19T10:06:38.617Z,53.49
2017-06-19T10:07:48.667Z,53.2
2017-06-19T10:08:59.085Z,53.3
2017-06-19T10:10:09.156Z,53.2
2017-06-19T10:11:19.497Z,53.42
2017-06-19T10:12:29.853Z,53.13
2017-06-19T10:13:40.208Z,53.03
2017-06-19T10:14:50.576Z,53.33
2017-06-19T10:16:00.985Z,53.13
2017-06-19T10:17:11.023Z,53.06
2017-06-19T10:18:21.391Z,52.96
2017-06-19T10:19:31.777Z,53.16
2017-06-19T10:20:42.136Z,52.86
2017-06-19T10:21:52.178Z,52.96
2017-06-19T10:23:02.534Z,53.35
2017-06-19T10:24:12.896Z,53.06
2017-06-19T10:25:22.645Z,53.45
2017-06-19T10:26:32.701Z,53.06
2017-06-19T10:27:42.732Z,53.16
2017-06-19T10:28:53.095Z,53.08
2017-06-19T10:30:02.817Z,53.28
2017-06-19T10:31:13.174Z,53.38
2017-06-19T10:32:23.214Z,53.57
2017-06-19T10:33:33.652Z,53.57
2017-06-19T10:34:44.248Z,53.57
2017-06-19T10:35:54.285Z,53.38
2017-06-19T10:37:04.636Z,53.57
2017-06-19T10:38:14.989Z,53.57
2017-06-19T10:39:24.765Z,53.57
2017-06-19T10:40:35.127Z,53.57
2017-06-19T10:41:45.484Z,53.47
2017-06-19T10:42:55.526Z,53.47
2017-06-19T10:44:05.908Z,53.08
2017-06-19T10:45:16.098Z,53.3
2017-06-19T10:46:26.137Z,53.47
2017-06-19T10:47:36.483Z,53.4
2017-06-19T10:48:46.844Z,53.11
2017-06-19T10:49:57.203Z,53.4
2017-06-19T10:51:07.248Z,53.3
2017-06-19T10:52:17.300Z,53.4
2017-06-19T10:53:27.671Z,53.03
2017-06-19T10:54:37.711Z,53.3
2017-06-19T10:55:48.069Z,52.94
2017-06-19T10:56:58.111Z,53.2
2017-06-19T10:58:08.484Z,53.11
2017-06-19T10:59:18.569Z,53.2
2017-06-19T11:00:28.916Z,53.4
2017-06-19T11:01:38.388Z,53.23
2017-06-19T11:02:48.752Z,53.13
2017-06-19T11:03:59.120Z,53.03
2017-06-19T11:05:09.159Z,53.43
2017-06-19T11:06:19.524Z,53.43
2017-06-19T11:07:29.883Z,52.94
2017-06-19T11:08:39.619Z,52.96
2017-06-19T11:09:49.992Z,52.94
2017-06-19T11:11:00.030Z,52.84
2017-06-19T11:12:10.072Z,52.74
2017-06-19T11:13:20.416Z,53.23
2017-06-19T11:14:30.786Z,53.26
2017-06-19T11:15:41.154Z,53.06
2017-06-19T11:16:51.502Z,53.16
2017-06-19T11:18:01.910Z,53.55
2017-06-19T11:19:12.271Z,53.26
2017-06-19T11:20:22.646Z,53.16
2017-06-19T11:21:32.688Z,53.36
2017-06-19T11:22:42.741Z,53.45
2017-06-19T11:23:52.853Z,53.45
2017-06-19T11:25:02.893Z,53.65
2017-06-19T11:26:13.245Z,53.16
2017-06-19T11:27:23.617Z,53.16
2017-06-19T11:28:33.675Z,53.58
2017-06-19T11:29:44.088Z,53.09
2017-06-19T11:30:54.434Z,53.16
2017-06-19T11:32:04.473Z,53.28
2017-06-19T11:33:14.834Z,53.06
2017-06-19T11:34:24.874Z,53.48
2017-06-19T11:35:35.285Z,53.58
2017-06-19T11:36:45.379Z,53.19
2017-06-19T11:37:55.434Z,53.45
2017-06-19T11:39:05.792Z,53.16
2017-06-19T11:40:15.836Z,53.45
2017-06-19T11:41:26.245Z,52.86
2017-06-19T11:42:36.620Z,53.19
2017-06-19T11:43:46.976Z,53.09
2017-06-19T11:44:57.015Z,53.48
2017-06-19T11:46:07.370Z,53.58
2017-06-19T11:47:17.772Z,53.38
2017-06-19T11:48:27.801Z,52.89
2017-06-19T11:49:37.522Z,53.58
2017-06-19T11:50:47.879Z,53.31
2017-06-19T11:51:58.248Z,53.5
2017-06-19T11:53:08.304Z,53.41
2017-06-19T11:54:18.684Z,52.62
2017-06-19T11:55:28.732Z,53.41
2017-06-19T11:56:39.104Z,53.7
2017-06-19T11:57:49.155Z,53.31
2017-06-19T11:58:59.568Z,53.11
2017-06-19T12:00:09.927Z,53.21
2017-06-19T12:01:20.296Z,53.11
2017-06-19T12:02:30.664Z,52.92
2017-06-19T12:03:40.410Z,53.11
2017-06-19T12:04:50.817Z,53.23
2017-06-19T12:06:01.181Z,53.44
2017-06-19T12:07:11.229Z,53.44
2017-06-19T12:08:20.973Z,52.92
2017-06-19T12:09:31.338Z,53.21
2017-06-19T12:10:41.705Z,53.31
2017-06-19T12:11:51.780Z,53.11
2017-06-19T12:13:01.879Z,53.21
2017-06-19T12:14:12.280Z,53.02
2017-06-19T12:15:22.679Z,53.21
2017-06-19T12:16:33.109Z,53.41
2017-06-19T12:17:43.504Z,53.41
2017-06-19T12:18:53.880Z,53.41
2017-06-19T12:20:04.310Z,53.41
2017-06-19T12:21:14.377Z,53.7
2017-06-19T12:22:24.523Z,53.21
2017-06-19T12:23:34.924Z,53.53
2017-06-19T12:24:45.026Z,53.21
2017-06-19T12:25:55.116Z,53.5
2017-06-19T12:27:05.526Z,53.41
2017-06-19T12:28:15.899Z,53.31
2017-06-19T12:29:26.251Z,53.53
2017-06-19T12:30:36.720Z,53.44
2017-06-19T12:31:47.309Z,53.04
2017-06-19T12:32:57.860Z,53.56
2017-06-19T12:34:08.131Z,53.27
2017-06-19T12:35:18.490Z,53.27
2017-06-19T12:36:28.846Z,52.97
2017-06-19T12:37:39.227Z,53.66
2017-06-19T12:38:49.589Z,53.16
2017-06-19T12:39:59.645Z,53.46
2017-06-19T12:41:10.011Z,53.06
2017-06-19T12:42:20.390Z,53.27
2017-06-19T12:43:30.762Z,53.27
2017-06-19T12:44:40.804Z,53.27
2017-06-19T12:45:51.227Z,53.16
2017-06-19T12:47:01.597Z,53.06
2017-06-19T12:48:11.654Z,53.36
2017-06-19T12:49:21.751Z,53.06
2017-06-19T12:50:32.120Z,53.56
2017-06-19T12:51:42.231Z,53.27
2017-06-19T12:52:52.595Z,53.56
2017-06-19T12:54:02.953Z,53.27
2017-06-19T12:55:13.302Z,53.27
2017-06-19T12:56:23.669Z,53.66
2017-06-19T12:57:34.035Z,53.53
2017-06-19T12:58:44.397Z,53.63
2017-06-19T12:59:54.453Z,53.73
2017-06-19T13:01:04.854Z,53.83
2017-06-19T13:02:15.235Z,53.83
2017-06-19T13:03:25.648Z,53.33
2017-06-19T13:04:36.038Z,53.63
2017-06-19T13:05:46.401Z,53.83
2017-06-19T13:06:56.784Z,53.23
2017-06-19T13:08:07.148Z,53.16
2017-06-19T13:09:17.574Z,53.06
2017-06-19T13:10:27.619Z,53.16
2017-06-19T13:11:37.998Z,53.46
2017-06-19T13:12:48.345Z,53.27
2017-06-19T13:13:58.417Z,53.27
2017-06-19T13:15:08.841Z,53.27
2017-06-19T13:16:18.897Z,53.56
2017-06-19T13:17:29.276Z,53.46
2017-06-19T13:18:39.632Z,53.56
2017-06-19T13:19:49.990Z,53.58
2017-06-19T13:21:00.406Z,53.58
2017-06-19T13:22:10.814Z,53.49
2017-06-19T13:23:21.177Z,53.29
2017-06-19T13:24:31.560Z,53.19
2017-06-19T13:25:41.621Z,53.58
2017-06-19T13:26:52.043Z,53.58
2017-06-19T13:28:02.087Z,53.46
2017-06-19T13:29:12.472Z,53.78
2017-06-19T13:30:22.827Z,53.85
2017-06-19T13:31:32.261Z,53.66
2017-06-19T13:32:42.384Z,53.68
2017-06-19T13:33:52.455Z,53.88
2017-06-19T13:35:02.875Z,53.78
2017-06-19T13:36:13.246Z,53.68
2017-06-19T13:37:22.993Z,53.85
2017-06-19T13:38:33.057Z,53.66
2017-06-19T13:39:43.442Z,53.85
2017-06-19T13:40:53.205Z,53.66
2017-06-19T13:42:03.628Z,53.95
2017-06-19T13:43:13.688Z,53.56
2017-06-19T13:44:23.447Z,53.56
2017-06-19T13:45:33.839Z,53.66
2017-06-19T13:46:44.244Z,53.92
2017-06-19T13:47:54.674Z,53.95
2017-06-19T13:49:05.096Z,53.92
2017-06-19T13:50:15.531Z,53.63
2017-06-19T13:51:25.928Z,53.53
2017-06-19T13:52:36.289Z,53.83
2017-06-19T13:53:46.707Z,53.83
2017-06-19T13:54:57.101Z,53.83
2017-06-19T13:56:07.455Z,53.73
2017-06-19T13:57:17.526Z,53.53
2017-06-19T13:58:27.884Z,53.53
2017-06-19T13:59:38.314Z,53.63
2017-06-19T14:00:48.709Z,53.85
2017-06-19T14:01:58.448Z,53.63
2017-06-19T14:03:08.207Z,53.75
2017-06-19T14:04:18.552Z,53.66
2017-06-19T14:05:28.964Z,53.75
2017-06-19T14:06:39.034Z,53.66
2017-06-19T14:07:49.083Z,53.85
2017-06-19T14:08:59.157Z,53.73
2017-06-19T14:10:09.515Z,53.83
2017-06-19T14:11:19.923Z,53.83
2017-06-19T14:12:29.973Z,53.53
2017-06-19T14:13:40.018Z,53.83
2017-06-19T14:14:50.122Z,53.44
2017-06-19T14:15:59.883Z,53.63
2017-06-19T14:17:09.969Z,53.63
2017-06-19T14:18:19.725Z,53.33
2017-06-19T14:19:30.085Z,53.63
2017-06-19T14:20:40.479Z,53.83
2017-06-19T14:21:50.545Z,54.12
2017-06-19T14:23:00.658Z,53.63
2017-06-19T14:24:11.020Z,53.92
2017-06-19T14:25:21.077Z,54.61
2017-06-19T14:26:31.466Z,54.52
2017-06-19T14:27:41.855Z,54.52
2017-06-19T14:28:52.279Z,54.39
2017-06-19T14:30:02.673Z,54.32
2017-06-19T14:31:13.070Z,54.02
2017-06-19T14:32:23.491Z,53.92
2017-06-19T14:33:33.897Z,53.83
2017-06-19T14:34:44.339Z,53.73
2017-06-19T14:35:54.704Z,53.53
2017-06-19T14:37:05.080Z,53.44
2017-06-19T14:38:15.511Z,53.53
2017-06-19T14:39:25.865Z,53.63
2017-06-19T14:40:35.966Z,54.02
2017-06-19T14:41:46.340Z,54.32
2017-06-19T14:42:56.726Z,54.52
2017-06-19T14:44:07.139Z,54.41
2017-06-19T14:45:17.570Z,54.52
2017-06-19T14:46:28.011Z,54.32
2017-06-19T14:47:38.406Z,54.52
2017-06-19T14:48:48.790Z,54.41
2017-06-19T14:49:58.879Z,54.22
2017-06-19T14:51:09.270Z,53.92
2017-06-19T14:52:19.773Z,53.92
2017-06-19T14:53:30.135Z,53.92
2017-06-19T14:54:40.508Z,54.12
2017-06-19T14:55:50.552Z,54.12
2017-06-19T14:57:00.612Z,54.32
2017-06-19T14:58:11.031Z,54.22
2017-06-19T14:59:21.084Z,54.32
2017-06-19T15:00:31.155Z,54.44
2017-06-19T15:01:41.550Z,54.12
2017-06-19T15:02:51.629Z,54.52
2017-06-19T15:04:01.742Z,54.22
2017-06-19T15:05:11.511Z,54.52
2017-06-19T15:06:21.869Z,54.12
2017-06-19T15:07:32.292Z,54.22
2017-06-19T15:08:42.651Z,53.92
2017-06-19T15:09:53.079Z,54.12
2017-06-19T15:11:03.132Z,54.1
2017-06-19T15:12:13.494Z,53.92
2017-06-19T15:13:23.861Z,53.9
2017-06-19T15:14:34.241Z,54.1
2017-06-19T15:15:44.652Z,54.29
2017-06-19T15:16:55.050Z,54.1
2017-06-19T15:18:05.433Z,54.1
2017-06-19T15:19:15.812Z,54.19
2017-06-19T15:20:25.873Z,54.1
2017-06-19T15:21:36.247Z,54.19
2017-06-19T15:22:46.619Z,53.9
2017-06-19T15:23:56.977Z,54.1
2017-06-19T15:25:07.347Z,54.29
2017-06-19T15:26:17.719Z,54.1
2017-06-19T15:27:27.819Z,54.19
2017-06-19T15:28:38.201Z,54.19
2017-06-19T15:29:48.551Z,54.19
2017-06-19T15:30:58.912Z,54.19
2017-06-19T15:32:09.267Z,54.19
2017-06-19T15:33:19.692Z,54.19
2017-06-19T15:34:30.069Z,54.19
2017-06-19T15:35:40.447Z,54.49
2017-06-19T15:36:50.843Z,54.29
2017-06-19T15:38:00.907Z,54.1
2017-06-19T15:39:11.018Z,54.39
2017-06-19T15:40:21.092Z,54.29
2017-06-19T15:41:31.462Z,54.19
2017-06-19T15:42:41.888Z,54.29
2017-06-19T15:43:51.658Z,54.58
2017-06-19T15:45:02.070Z,54.56
2017-06-19T15:46:12.438Z,54.36
2017-06-19T15:47:22.499Z,54.27
2017-06-19T15:48:32.582Z,54.85
2017-06-19T15:49:42.648Z,55.05
2017-06-19T15:50:53.091Z,55.15
2017-06-19T15:52:03.467Z,54.17
2017-06-19T15:53:13.846Z,54.95
2017-06-19T15:54:24.222Z,54.85
2017-06-19T15:55:34.589Z,55.05
2017-06-19T15:56:44.971Z,54.56